KOQT METAR and TAF weather

Enter ICAO airport designator
Station Type Date Time Source
KOQT METAR 2018/04/27 00:53 UTC NOAA

KOQT 270053Z AUTO 00000KT 10SM -RA OVC042 12/11 A2989 RMK AO2 SLP121 P0000 T01170111


Station Type Date Time Source
KOQT Decoded METAR 2018/04/27 00:53 UTC NOAA

OAK RIDGE, TN, United States (KOQT) 36-01N 84-14W
Apr 26, 2018 - 08:53 PM EDT / 2018.04.27 0053 UTC
Wind: Calm:0
Visibility: 10 mile(s):0
Sky conditions: overcast
Weather: light rain
Precipitation last hour: A trace
Temperature: 53.1 F (11.7 C)
Dew Point: 52.0 F (11.1 C)
Relative Humidity: 96%
Pressure (altimeter): 29.89 in. Hg (1012 hPa)
ob: KOQT 270053Z AUTO 00000KT 10SM -RA OVC042 12/11 A2989 RMK AO2 SLP121 P0000 T01170111
cycle: 1

Station Type Date Time Source
KOQT TAF UTC NOAA

Error!


Example: see airport list